sensor_id;sensor_type;location;lat;lon;timestamp;P1;durP1;ratioP1;P2;durP2;ratioP2
51226;SDS011;42714;48.260;10.980;2023-12-04T00:02:59;82.9;;;22.4;;
51226;SDS011;42714;48.260;10.980;2023-12-04T00:07:59;128.5;;;33.0;;
51226;SDS011;42714;48.260;10.980;2023-12-04T00:12:59;140.8;;;33.3;;
51226;SDS011;42714;48.260;10.980;2023-12-04T00:17:59;120.4;;;28.8;;
51226;SDS011;42714;48.260;10.980;2023-12-04T00:22:59;69.3;;;22.5;;
51226;SDS011;42714;48.260;10.980;2023-12-04T00:27:59;71.9;;;21.3;;
51226;SDS011;42714;48.260;10.980;2023-12-04T00:32:59;69.2;;;21.5;;
51226;SDS011;42714;48.260;10.980;2023-12-04T00:37:59;64.9;;;20.7;;
51226;SDS011;42714;48.260;10.980;2023-12-04T00:42:59;66.5;;;20.5;;
51226;SDS011;42714;48.260;10.980;2023-12-04T00:47:59;94.6;;;27.2;;
51226;SDS011;42714;48.260;10.980;2023-12-04T00:52:59;79.1;;;24.1;;
51226;SDS011;42714;48.260;10.980;2023-12-04T00:57:59;68.0;;;20.4;;
51226;SDS011;42714;48.260;10.980;2023-12-04T01:02:59;61.6;;;19.4;;
51226;SDS011;42714;48.260;10.980;2023-12-04T01:07:59;53.9;;;19.1;;
51226;SDS011;42714;48.260;10.980;2023-12-04T01:12:59;57.2;;;19.1;;
51226;SDS011;42714;48.260;10.980;2023-12-04T01:17:59;51.8;;;16.8;;
51226;SDS011;42714;48.260;10.980;2023-12-04T01:22:59;46.4;;;15.6;;
51226;SDS011;42714;48.260;10.980;2023-12-04T01:27:59;52.7;;;17.7;;
51226;SDS011;42714;48.260;10.980;2023-12-04T01:32:59;46.7;;;15.9;;
51226;SDS011;42714;48.260;10.980;2023-12-04T01:37:59;39.7;;;15.3;;
51226;SDS011;42714;48.260;10.980;2023-12-04T01:42:59;47.6;;;16.8;;
51226;SDS011;42714;48.260;10.980;2023-12-04T01:47:59;47.4;;;17.5;;
51226;SDS011;42714;48.260;10.980;2023-12-04T01:52:59;46.0;;;16.1;;
51226;SDS011;42714;48.260;10.980;2023-12-04T01:58:00;50.4;;;17.6;;
51226;SDS011;42714;48.260;10.980;2023-12-04T02:02:59;52.0;;;18.0;;
51226;SDS011;42714;48.260;10.980;2023-12-04T02:07:59;49.9;;;17.9;;
51226;SDS011;42714;48.260;10.980;2023-12-04T02:12:59;50.6;;;18.1;;
51226;SDS011;42714;48.260;10.980;2023-12-04T02:17:59;47.1;;;16.7;;
51226;SDS011;42714;48.260;10.980;2023-12-04T02:23:00;54.8;;;17.6;;
51226;SDS011;42714;48.260;10.980;2023-12-04T02:28:01;48.4;;;16.9;;
51226;SDS011;42714;48.260;10.980;2023-12-04T02:32:59;49.9;;;18.0;;
51226;SDS011;42714;48.260;10.980;2023-12-04T02:38:00;53.5;;;17.6;;
51226;SDS011;42714;48.260;10.980;2023-12-04T02:42:59;47.3;;;16.9;;
51226;SDS011;42714;48.260;10.980;2023-12-04T02:47:59;43.2;;;16.1;;
51226;SDS011;42714;48.260;10.980;2023-12-04T02:52:59;55.5;;;17.7;;
51226;SDS011;42714;48.260;10.980;2023-12-04T02:57:59;51.9;;;16.7;;
51226;SDS011;42714;48.260;10.980;2023-12-04T03:02:59;57.1;;;18.2;;
51226;SDS011;42714;48.260;10.980;2023-12-04T03:07:59;52.3;;;18.0;;
51226;SDS011;42714;48.260;10.980;2023-12-04T03:12:59;50.7;;;17.2;;
51226;SDS011;42714;48.260;10.980;2023-12-04T03:17:59;52.3;;;17.4;;
51226;SDS011;42714;48.260;10.980;2023-12-04T03:22:59;42.7;;;14.9;;
51226;SDS011;42714;48.260;10.980;2023-12-04T03:27:59;45.0;;;15.2;;
51226;SDS011;42714;48.260;10.980;2023-12-04T03:32:59;51.6;;;17.1;;
51226;SDS011;42714;48.260;10.980;2023-12-04T03:37:59;48.3;;;16.2;;
51226;SDS011;42714;48.260;10.980;2023-12-04T03:42:59;40.9;;;12.8;;
51226;SDS011;42714;48.260;10.980;2023-12-04T03:47:59;49.8;;;17.2;;
51226;SDS011;42714;48.260;10.980;2023-12-04T03:52:59;45.5;;;16.3;;
51226;SDS011;42714;48.260;10.980;2023-12-04T03:57:59;47.1;;;15.6;;
51226;SDS011;42714;48.260;10.980;2023-12-04T04:02:59;49.9;;;16.1;;
51226;SDS011;42714;48.260;10.980;2023-12-04T04:08:00;50.2;;;17.0;;
51226;SDS011;42714;48.260;10.980;2023-12-04T04:12:59;40.1;;;12.3;;
51226;SDS011;42714;48.260;10.980;2023-12-04T04:17:59;35.7;;;12.2;;
51226;SDS011;42714;48.260;10.980;2023-12-04T04:22:59;39.3;;;14.0;;
51226;SDS011;42714;48.260;10.980;2023-12-04T04:27:59;37.5;;;13.0;;
51226;SDS011;42714;48.260;10.980;2023-12-04T04:32:59;36.4;;;12.5;;
51226;SDS011;42714;48.260;10.980;2023-12-04T04:37:59;33.0;;;9.8;;
51226;SDS011;42714;48.260;10.980;2023-12-04T04:42:59;42.6;;;13.8;;
51226;SDS011;42714;48.260;10.980;2023-12-04T04:47:59;34.0;;;10.3;;
51226;SDS011;42714;48.260;10.980;2023-12-04T04:53:00;52.6;;;16.3;;
51226;SDS011;42714;48.260;10.980;2023-12-04T04:57:59;57.7;;;17.3;;
51226;SDS011;42714;48.260;10.980;2023-12-04T05:02:59;56.9;;;16.3;;
51226;SDS011;42714;48.260;10.980;2023-12-04T05:07:59;55.9;;;16.7;;
51226;SDS011;42714;48.260;10.980;2023-12-04T05:12:59;78.5;;;22.7;;
51226;SDS011;42714;48.260;10.980;2023-12-04T05:17:59;71.5;;;21.6;;
51226;SDS011;42714;48.260;10.980;2023-12-04T05:22:59;65.7;;;18.3;;
51226;SDS011;42714;48.260;10.980;2023-12-04T05:27:59;64.5;;;19.0;;
51226;SDS011;42714;48.260;10.980;2023-12-04T05:32:59;56.3;;;17.1;;
51226;SDS011;42714;48.260;10.980;2023-12-04T05:37:59;67.4;;;20.3;;
51226;SDS011;42714;48.260;10.980;2023-12-04T05:42:59;52.4;;;15.2;;
51226;SDS011;42714;48.260;10.980;2023-12-04T05:47:59;56.7;;;16.5;;
51226;SDS011;42714;48.260;10.980;2023-12-04T05:52:59;50.9;;;14.2;;
51226;SDS011;42714;48.260;10.980;2023-12-04T05:57:59;41.3;;;12.0;;
51226;SDS011;42714;48.260;10.980;2023-12-04T06:02:59;45.1;;;15.2;;
51226;SDS011;42714;48.260;10.980;2023-12-04T06:07:59;45.9;;;13.2;;
51226;SDS011;42714;48.260;10.980;2023-12-04T06:12:59;47.5;;;14.3;;
51226;SDS011;42714;48.260;10.980;2023-12-04T06:17:59;46.4;;;14.7;;
51226;SDS011;42714;48.260;10.980;2023-12-04T06:22:59;53.8;;;16.6;;
51226;SDS011;42714;48.260;10.980;2023-12-04T06:28:00;48.4;;;15.7;;
51226;SDS011;42714;48.260;10.980;2023-12-04T06:32:59;49.5;;;15.2;;
51226;SDS011;42714;48.260;10.980;2023-12-04T06:38:01;51.4;;;15.5;;
51226;SDS011;42714;48.260;10.980;2023-12-04T06:43:00;51.7;;;15.1;;
51226;SDS011;42714;48.260;10.980;2023-12-04T06:47:59;44.4;;;12.6;;
51226;SDS011;42714;48.260;10.980;2023-12-04T06:52:59;49.0;;;14.0;;
51226;SDS011;42714;48.260;10.980;2023-12-04T06:57:59;45.5;;;13.9;;
51226;SDS011;42714;48.260;10.980;2023-12-04T07:02:59;39.1;;;11.5;;
51226;SDS011;42714;48.260;10.980;2023-12-04T07:07:59;32.5;;;10.4;;
51226;SDS011;42714;48.260;10.980;2023-12-04T07:12:59;44.8;;;13.1;;
51226;SDS011;42714;48.260;10.980;2023-12-04T07:17:59;48.4;;;13.4;;
51226;SDS011;42714;48.260;10.980;2023-12-04T07:22:59;56.6;;;16.8;;
51226;SDS011;42714;48.260;10.980;2023-12-04T07:27:59;59.0;;;19.5;;
51226;SDS011;42714;48.260;10.980;2023-12-04T07:32:59;56.7;;;18.3;;
51226;SDS011;42714;48.260;10.980;2023-12-04T07:37:59;50.0;;;14.5;;
51226;SDS011;42714;48.260;10.980;2023-12-04T07:42:59;54.5;;;17.2;;
51226;SDS011;42714;48.260;10.980;2023-12-04T07:47:59;44.8;;;14.9;;
51226;SDS011;42714;48.260;10.980;2023-12-04T07:52:59;39.1;;;13.7;;
51226;SDS011;42714;48.260;10.980;2023-12-04T07:58:00;41.7;;;16.3;;
51226;SDS011;42714;48.260;10.980;2023-12-04T08:03:00;42.4;;;14.6;;
51226;SDS011;42714;48.260;10.980;2023-12-04T08:08:00;32.7;;;12.2;;
51226;SDS011;42714;48.260;10.980;2023-12-04T08:13:00;50.3;;;17.7;;
51226;SDS011;42714;48.260;10.980;2023-12-04T08:18:00;60.6;;;21.1;;
51226;SDS011;42714;48.260;10.980;2023-12-04T08:23:00;64.8;;;21.6;;
51226;SDS011;42714;48.260;10.980;2023-12-04T08:28:00;59.8;;;20.5;;
51226;SDS011;42714;48.260;10.980;2023-12-04T08:33:00;66.9;;;22.3;;
51226;SDS011;42714;48.260;10.980;2023-12-04T08:38:00;74.2;;;27.4;;
51226;SDS011;42714;48.260;10.980;2023-12-04T08:43:00;63.7;;;21.1;;
51226;SDS011;42714;48.260;10.980;2023-12-04T08:48:00;71.2;;;23.9;;
51226;SDS011;42714;48.260;10.980;2023-12-04T08:53:00;71.1;;;21.6;;
51226;SDS011;42714;48.260;10.980;2023-12-04T08:58:00;56.9;;;20.1;;
51226;SDS011;42714;48.260;10.980;2023-12-04T09:03:00;64.5;;;21.4;;
51226;SDS011;42714;48.260;10.980;2023-12-04T09:08:00;77.7;;;27.2;;
51226;SDS011;42714;48.260;10.980;2023-12-04T09:13:00;74.9;;;24.8;;
51226;SDS011;42714;48.260;10.980;2023-12-04T09:18:00;66.4;;;22.2;;
51226;SDS011;42714;48.260;10.980;2023-12-04T09:23:01;59.4;;;21.0;;
51226;SDS011;42714;48.260;10.980;2023-12-04T09:28:00;75.7;;;27.9;;
51226;SDS011;42714;48.260;10.980;2023-12-04T09:33:00;80.9;;;29.9;;
51226;SDS011;42714;48.260;10.980;2023-12-04T09:38:00;72.4;;;28.0;;
51226;SDS011;42714;48.260;10.980;2023-12-04T09:43:00;83.0;;;29.8;;
51226;SDS011;42714;48.260;10.980;2023-12-04T09:48:00;85.9;;;30.3;;
51226;SDS011;42714;48.260;10.980;2023-12-04T09:53:00;82.6;;;29.8;;
51226;SDS011;42714;48.260;10.980;2023-12-04T09:58:00;66.7;;;23.6;;
51226;SDS011;42714;48.260;10.980;2023-12-04T10:03:00;70.0;;;28.3;;
51226;SDS011;42714;48.260;10.980;2023-12-04T10:08:00;69.0;;;25.4;;
51226;SDS011;42714;48.260;10.980;2023-12-04T10:13:00;67.0;;;26.8;;
51226;SDS011;42714;48.260;10.980;2023-12-04T10:18:00;61.0;;;25.3;;
51226;SDS011;42714;48.260;10.980;2023-12-04T10:23:00;53.6;;;21.8;;
51226;SDS011;42714;48.260;10.980;2023-12-04T10:28:10;66.4;;;25.5;;
51226;SDS011;42714;48.260;10.980;2023-12-04T10:38:00;70.8;;;26.3;;
51226;SDS011;42714;48.260;10.980;2023-12-04T10:48:00;47.6;;;18.7;;
51226;SDS011;42714;48.260;10.980;2023-12-04T10:53:01;43.2;;;17.1;;
51226;SDS011;42714;48.260;10.980;2023-12-04T11:03:09;66.8;;;24.7;;
51226;SDS011;42714;48.260;10.980;2023-12-04T11:08:00;77.6;;;28.9;;
51226;SDS011;42714;48.260;10.980;2023-12-04T11:13:01;58.1;;;24.9;;
51226;SDS011;42714;48.260;10.980;2023-12-04T11:18:00;61.3;;;23.8;;
51226;SDS011;42714;48.260;10.980;2023-12-04T11:23:00;38.9;;;15.5;;
51226;SDS011;42714;48.260;10.980;2023-12-04T11:28:00;46.5;;;19.1;;
51226;SDS011;42714;48.260;10.980;2023-12-04T11:33:00;48.4;;;19.2;;
51226;SDS011;42714;48.260;10.980;2023-12-04T11:38:00;53.1;;;21.0;;
51226;SDS011;42714;48.260;10.980;2023-12-04T11:43:00;59.8;;;24.5;;
51226;SDS011;42714;48.260;10.980;2023-12-04T11:48:00;58.4;;;23.4;;
51226;SDS011;42714;48.260;10.980;2023-12-04T11:53:00;45.6;;;19.4;;
51226;SDS011;42714;48.260;10.980;2023-12-04T11:58:00;49.7;;;20.7;;
51226;SDS011;42714;48.260;10.980;2023-12-04T12:03:01;45.9;;;20.9;;
51226;SDS011;42714;48.260;10.980;2023-12-04T12:08:00;212.4;;;59.0;;
51226;SDS011;42714;48.260;10.980;2023-12-04T12:13:00;67.7;;;25.7;;
51226;SDS011;42714;48.260;10.980;2023-12-04T12:18:00;55.7;;;22.6;;
51226;SDS011;42714;48.260;10.980;2023-12-04T12:23:00;51.6;;;21.8;;
51226;SDS011;42714;48.260;10.980;2023-12-04T12:33:00;57.1;;;22.4;;
51226;SDS011;42714;48.260;10.980;2023-12-04T12:38:00;48.3;;;20.9;;
51226;SDS011;42714;48.260;10.980;2023-12-04T12:43:03;46.8;;;21.7;;
51226;SDS011;42714;48.260;10.980;2023-12-04T12:48:00;47.1;;;19.8;;
51226;SDS011;42714;48.260;10.980;2023-12-04T12:53:01;40.8;;;18.1;;
51226;SDS011;42714;48.260;10.980;2023-12-04T12:58:00;41.4;;;19.6;;
51226;SDS011;42714;48.260;10.980;2023-12-04T13:03:00;44.2;;;20.0;;
51226;SDS011;42714;48.260;10.980;2023-12-04T13:08:00;40.4;;;18.7;;
51226;SDS011;42714;48.260;10.980;2023-12-04T13:13:00;45.6;;;19.8;;
51226;SDS011;42714;48.260;10.980;2023-12-04T13:18:00;44.5;;;19.7;;
51226;SDS011;42714;48.260;10.980;2023-12-04T13:23:00;53.3;;;21.6;;
51226;SDS011;42714;48.260;10.980;2023-12-04T13:28:00;46.2;;;20.3;;
51226;SDS011;42714;48.260;10.980;2023-12-04T13:33:00;45.0;;;18.9;;
51226;SDS011;42714;48.260;10.980;2023-12-04T13:38:00;37.9;;;17.0;;
51226;SDS011;42714;48.260;10.980;2023-12-04T13:43:00;38.1;;;17.4;;
51226;SDS011;42714;48.260;10.980;2023-12-04T13:48:00;37.6;;;17.7;;
51226;SDS011;42714;48.260;10.980;2023-12-04T13:53:00;37.5;;;17.5;;
51226;SDS011;42714;48.260;10.980;2023-12-04T13:58:00;35.9;;;16.4;;
51226;SDS011;42714;48.260;10.980;2023-12-04T14:03:00;38.3;;;17.2;;
51226;SDS011;42714;48.260;10.980;2023-12-04T14:08:00;38.6;;;16.1;;
51226;SDS011;42714;48.260;10.980;2023-12-04T14:13:00;37.6;;;17.5;;
51226;SDS011;42714;48.260;10.980;2023-12-04T14:18:00;44.3;;;21.6;;
51226;SDS011;42714;48.260;10.980;2023-12-04T14:23:00;58.4;;;27.1;;
51226;SDS011;42714;48.260;10.980;2023-12-04T14:28:00;56.9;;;26.2;;
51226;SDS011;42714;48.260;10.980;2023-12-04T14:33:00;56.4;;;25.2;;
51226;SDS011;42714;48.260;10.980;2023-12-04T14:38:00;62.9;;;26.5;;
51226;SDS011;42714;48.260;10.980;2023-12-04T14:43:00;54.6;;;24.5;;
51226;SDS011;42714;48.260;10.980;2023-12-04T14:48:00;62.2;;;27.0;;
51226;SDS011;42714;48.260;10.980;2023-12-04T14:53:00;66.8;;;27.9;;
51226;SDS011;42714;48.260;10.980;2023-12-04T14:58:00;59.3;;;26.2;;
51226;SDS011;42714;48.260;10.980;2023-12-04T15:03:00;59.4;;;25.7;;
51226;SDS011;42714;48.260;10.980;2023-12-04T15:08:00;67.1;;;28.3;;
51226;SDS011;42714;48.260;10.980;2023-12-04T15:13:00;46.6;;;21.6;;
51226;SDS011;42714;48.260;10.980;2023-12-04T15:18:00;57.5;;;23.9;;
51226;SDS011;42714;48.260;10.980;2023-12-04T15:23:00;63.9;;;28.9;;
51226;SDS011;42714;48.260;10.980;2023-12-04T15:28:00;69.6;;;28.1;;
51226;SDS011;42714;48.260;10.980;2023-12-04T15:33:00;64.6;;;25.4;;
51226;SDS011;42714;48.260;10.980;2023-12-04T15:38:00;67.7;;;26.7;;
51226;SDS011;42714;48.260;10.980;2023-12-04T15:43:00;70.1;;;27.1;;
51226;SDS011;42714;48.260;10.980;2023-12-04T15:48:00;62.4;;;25.4;;
51226;SDS011;42714;48.260;10.980;2023-12-04T15:53:00;76.7;;;34.0;;
51226;SDS011;42714;48.260;10.980;2023-12-04T15:58:00;61.7;;;26.1;;
51226;SDS011;42714;48.260;10.980;2023-12-04T16:03:00;68.6;;;30.7;;
51226;SDS011;42714;48.260;10.980;2023-12-04T16:08:00;68.4;;;29.2;;
51226;SDS011;42714;48.260;10.980;2023-12-04T16:13:00;67.9;;;28.6;;
51226;SDS011;42714;48.260;10.980;2023-12-04T16:18:00;76.8;;;31.3;;
51226;SDS011;42714;48.260;10.980;2023-12-04T16:23:00;81.4;;;31.4;;
51226;SDS011;42714;48.260;10.980;2023-12-04T16:28:00;74.8;;;28.7;;
51226;SDS011;42714;48.260;10.980;2023-12-04T16:33:00;50.0;;;20.3;;
51226;SDS011;42714;48.260;10.980;2023-12-04T16:38:00;70.3;;;28.0;;
51226;SDS011;42714;48.260;10.980;2023-12-04T16:43:00;75.6;;;28.6;;
51226;SDS011;42714;48.260;10.980;2023-12-04T16:48:00;60.3;;;21.0;;
51226;SDS011;42714;48.260;10.980;2023-12-04T16:53:00;69.9;;;26.8;;
51226;SDS011;42714;48.260;10.980;2023-12-04T16:58:00;60.2;;;21.7;;
51226;SDS011;42714;48.260;10.980;2023-12-04T17:03:00;81.2;;;31.4;;
51226;SDS011;42714;48.260;10.980;2023-12-04T17:08:00;73.0;;;28.2;;
51226;SDS011;42714;48.260;10.980;2023-12-04T17:13:00;73.9;;;28.4;;
51226;SDS011;42714;48.260;10.980;2023-12-04T17:18:00;107.9;;;38.5;;
51226;SDS011;42714;48.260;10.980;2023-12-04T17:23:00;124.6;;;41.6;;
51226;SDS011;42714;48.260;10.980;2023-12-04T17:28:00;102.4;;;39.7;;
51226;SDS011;42714;48.260;10.980;2023-12-04T17:33:00;112.5;;;45.2;;
51226;SDS011;42714;48.260;10.980;2023-12-04T17:38:00;100.1;;;35.1;;
51226;SDS011;42714;48.260;10.980;2023-12-04T17:43:00;88.7;;;35.3;;
51226;SDS011;42714;48.260;10.980;2023-12-04T17:48:00;78.9;;;30.8;;
51226;SDS011;42714;48.260;10.980;2023-12-04T17:53:00;93.7;;;38.1;;
51226;SDS011;42714;48.260;10.980;2023-12-04T17:58:01;81.9;;;34.2;;
51226;SDS011;42714;48.260;10.980;2023-12-04T18:03:00;100.5;;;40.9;;
51226;SDS011;42714;48.260;10.980;2023-12-04T18:08:00;108.9;;;40.6;;
51226;SDS011;42714;48.260;10.980;2023-12-04T18:13:00;88.0;;;33.6;;
51226;SDS011;42714;48.260;10.980;2023-12-04T18:18:00;103.3;;;40.8;;
51226;SDS011;42714;48.260;10.980;2023-12-04T18:23:00;90.4;;;38.7;;
51226;SDS011;42714;48.260;10.980;2023-12-04T18:28:00;90.1;;;36.5;;
51226;SDS011;42714;48.260;10.980;2023-12-04T18:33:00;91.1;;;37.0;;
51226;SDS011;42714;48.260;10.980;2023-12-04T18:38:04;101.5;;;39.9;;
51226;SDS011;42714;48.260;10.980;2023-12-04T18:43:00;93.5;;;37.7;;
51226;SDS011;42714;48.260;10.980;2023-12-04T18:48:03;101.9;;;42.7;;
51226;SDS011;42714;48.260;10.980;2023-12-04T18:53:00;118.6;;;52.3;;
51226;SDS011;42714;48.260;10.980;2023-12-04T18:58:00;124.9;;;59.8;;
51226;SDS011;42714;48.260;10.980;2023-12-04T19:03:00;110.8;;;47.6;;
51226;SDS011;42714;48.260;10.980;2023-12-04T19:08:00;110.5;;;47.3;;
51226;SDS011;42714;48.260;10.980;2023-12-04T19:13:00;111.9;;;46.1;;
51226;SDS011;42714;48.260;10.980;2023-12-04T19:18:00;107.2;;;44.6;;
51226;SDS011;42714;48.260;10.980;2023-12-04T19:23:00;112.5;;;44.7;;
51226;SDS011;42714;48.260;10.980;2023-12-04T19:28:01;108.7;;;46.5;;
51226;SDS011;42714;48.260;10.980;2023-12-04T19:33:00;82.8;;;34.8;;
51226;SDS011;42714;48.260;10.980;2023-12-04T19:38:00;72.2;;;30.5;;
51226;SDS011;42714;48.260;10.980;2023-12-04T19:43:00;68.6;;;28.0;;
51226;SDS011;42714;48.260;10.980;2023-12-04T19:48:00;68.3;;;29.8;;
51226;SDS011;42714;48.260;10.980;2023-12-04T19:53:00;71.1;;;30.4;;
51226;SDS011;42714;48.260;10.980;2023-12-04T19:58:00;70.4;;;30.9;;
51226;SDS011;42714;48.260;10.980;2023-12-04T20:03:00;56.3;;;23.2;;
51226;SDS011;42714;48.260;10.980;2023-12-04T20:08:00;71.0;;;28.8;;
51226;SDS011;42714;48.260;10.980;2023-12-04T20:13:00;82.8;;;35.4;;
51226;SDS011;42714;48.260;10.980;2023-12-04T20:18:00;65.9;;;27.4;;
51226;SDS011;42714;48.260;10.980;2023-12-04T20:23:00;45.6;;;18.1;;
51226;SDS011;42714;48.260;10.980;2023-12-04T20:28:00;59.8;;;26.3;;
51226;SDS011;42714;48.260;10.980;2023-12-04T20:33:00;66.7;;;30.7;;
51226;SDS011;42714;48.260;10.980;2023-12-04T20:38:00;51.0;;;20.5;;
51226;SDS011;42714;48.260;10.980;2023-12-04T20:43:00;45.3;;;18.2;;
51226;SDS011;42714;48.260;10.980;2023-12-04T20:48:01;58.2;;;25.9;;
51226;SDS011;42714;48.260;10.980;2023-12-04T20:53:00;62.8;;;27.0;;
51226;SDS011;42714;48.260;10.980;2023-12-04T20:58:02;49.5;;;20.2;;
51226;SDS011;42714;48.260;10.980;2023-12-04T21:03:00;50.0;;;21.9;;
51226;SDS011;42714;48.260;10.980;2023-12-04T21:08:00;46.3;;;19.4;;
51226;SDS011;42714;48.260;10.980;2023-12-04T21:13:00;55.3;;;24.0;;
51226;SDS011;42714;48.260;10.980;2023-12-04T21:18:00;68.6;;;28.1;;
51226;SDS011;42714;48.260;10.980;2023-12-04T21:23:00;74.1;;;32.6;;
51226;SDS011;42714;48.260;10.980;2023-12-04T21:28:00;74.0;;;31.2;;
51226;SDS011;42714;48.260;10.980;2023-12-04T21:33:00;75.5;;;32.2;;
51226;SDS011;42714;48.260;10.980;2023-12-04T21:38:00;52.4;;;22.9;;
51226;SDS011;42714;48.260;10.980;2023-12-04T21:43:00;77.1;;;32.4;;
51226;SDS011;42714;48.260;10.980;2023-12-04T21:48:00;73.6;;;29.8;;
51226;SDS011;42714;48.260;10.980;2023-12-04T21:53:00;51.6;;;20.1;;
51226;SDS011;42714;48.260;10.980;2023-12-04T21:58:00;52.1;;;21.5;;
51226;SDS011;42714;48.260;10.980;2023-12-04T22:03:00;69.8;;;28.8;;
51226;SDS011;42714;48.260;10.980;2023-12-04T22:08:00;60.7;;;24.3;;
51226;SDS011;42714;48.260;10.980;2023-12-04T22:13:00;57.3;;;25.0;;
51226;SDS011;42714;48.260;10.980;2023-12-04T22:18:00;60.7;;;25.8;;
51226;SDS011;42714;48.260;10.980;2023-12-04T22:23:00;61.0;;;24.6;;
51226;SDS011;42714;48.260;10.980;2023-12-04T22:28:00;59.2;;;24.6;;
51226;SDS011;42714;48.260;10.980;2023-12-04T22:33:00;46.6;;;20.3;;
51226;SDS011;42714;48.260;10.980;2023-12-04T22:38:00;46.8;;;20.0;;
51226;SDS011;42714;48.260;10.980;2023-12-04T22:43:00;52.7;;;22.5;;
51226;SDS011;42714;48.260;10.980;2023-12-04T22:48:00;53.4;;;23.1;;
51226;SDS011;42714;48.260;10.980;2023-12-04T22:53:00;55.5;;;25.0;;
51226;SDS011;42714;48.260;10.980;2023-12-04T22:58:00;54.8;;;22.7;;
51226;SDS011;42714;48.260;10.980;2023-12-04T23:03:00;53.4;;;23.1;;
51226;SDS011;42714;48.260;10.980;2023-12-04T23:08:00;60.3;;;25.8;;
51226;SDS011;42714;48.260;10.980;2023-12-04T23:13:00;64.1;;;28.2;;
51226;SDS011;42714;48.260;10.980;2023-12-04T23:18:00;68.0;;;31.1;;
51226;SDS011;42714;48.260;10.980;2023-12-04T23:23:00;73.1;;;29.3;;
51226;SDS011;42714;48.260;10.980;2023-12-04T23:28:00;67.9;;;31.0;;
51226;SDS011;42714;48.260;10.980;2023-12-04T23:33:00;65.0;;;31.2;;
51226;SDS011;42714;48.260;10.980;2023-12-04T23:38:00;73.5;;;32.1;;
51226;SDS011;42714;48.260;10.980;2023-12-04T23:43:00;66.2;;;30.6;;
51226;SDS011;42714;48.260;10.980;2023-12-04T23:48:00;62.8;;;28.8;;
51226;SDS011;42714;48.260;10.980;2023-12-04T23:53:00;63.0;;;28.7;;
51226;SDS011;42714;48.260;10.980;2023-12-04T23:58:00;67.4;;;28.8;;
